sensor_id;sensor_type;location;lat;lon;timestamp;pressure;altitude;pressure_sealevel;temperature;humidity
72423;BME280;60413;55.658;37.498;2022-08-21T00:02:15;99724.94;;;16.83;82.30
72423;BME280;60413;55.658;37.498;2022-08-21T00:04:41;99728.91;;;16.75;82.57
72423;BME280;60413;55.658;37.498;2022-08-21T00:07:07;99749.69;;;16.83;82.13
72423;BME280;60413;55.658;37.498;2022-08-21T00:09:33;99715.84;;;16.68;82.55
72423;BME280;60413;55.658;37.498;2022-08-21T00:12:03;99721.72;;;16.71;81.60
72423;BME280;60413;55.658;37.498;2022-08-21T00:14:29;99709.22;;;16.66;81.69
72423;BME280;60413;55.658;37.498;2022-08-21T00:16:58;99761.72;;;17.01;81.35
72423;BME280;60413;55.658;37.498;2022-08-21T00:19:24;99767.84;;;17.07;81.20
72423;BME280;60413;55.658;37.498;2022-08-21T00:21:52;99699.59;;;16.60;81.71
72423;BME280;60413;55.658;37.498;2022-08-21T00:24:19;99739.56;;;16.80;81.36
72423;BME280;60413;55.658;37.498;2022-08-21T00:26:45;99791.28;;;17.05;81.93
72423;BME280;60413;55.658;37.498;2022-08-21T00:29:12;99765.16;;;16.97;82.58
72423;BME280;60413;55.658;37.498;2022-08-21T00:31:42;99746.47;;;16.61;83.23
72423;BME280;60413;55.658;37.498;2022-08-21T00:34:12;99731.81;;;16.68;83.41
72423;BME280;60413;55.658;37.498;2022-08-21T00:36:41;99710.47;;;16.43;82.81
72423;BME280;60413;55.658;37.498;2022-08-21T00:39:08;99767.25;;;16.79;83.07
72423;BME280;60413;55.658;37.498;2022-08-21T00:41:36;99710.75;;;16.46;83.33
72423;BME280;60413;55.658;37.498;2022-08-21T00:44:03;99734.75;;;16.67;83.88
72423;BME280;60413;55.658;37.498;2022-08-21T00:46:29;99752.59;;;16.72;83.60
72423;BME280;60413;55.658;37.498;2022-08-21T00:48:56;99684.63;;;16.28;83.23
72423;BME280;60413;55.658;37.498;2022-08-21T00:51:27;99696.59;;;16.25;84.54
72423;BME280;60413;55.658;37.498;2022-08-21T00:53:57;99687.28;;;16.23;84.64
72423;BME280;60413;55.658;37.498;2022-08-21T00:56:25;99692.59;;;16.18;86.02
72423;BME280;60413;55.658;37.498;2022-08-21T00:58:53;99690.47;;;16.20;86.86
72423;BME280;60413;55.658;37.498;2022-08-21T01:01:20;99745.81;;;16.28;87.41
72423;BME280;60413;55.658;37.498;2022-08-21T01:03:46;99699.69;;;16.02;87.37
72423;BME280;60413;55.658;37.498;2022-08-21T01:06:13;99740.47;;;16.18;87.50
72423;BME280;60413;55.658;37.498;2022-08-21T01:08:39;99792.97;;;16.48;88.06
72423;BME280;60413;55.658;37.498;2022-08-21T01:11:05;99711.38;;;15.96;88.54
72423;BME280;60413;55.658;37.498;2022-08-21T01:13:36;99724.13;;;15.93;88.71
72423;BME280;60413;55.658;37.498;2022-08-21T01:16:08;99743.34;;;16.06;89.13
72423;BME280;60413;55.658;37.498;2022-08-21T01:18:39;99761.72;;;16.18;89.73
72423;BME280;60413;55.658;37.498;2022-08-21T01:21:06;99705.19;;;15.80;90.13
72423;BME280;60413;55.658;37.498;2022-08-21T01:23:36;99745.75;;;16.07;91.21
72423;BME280;60413;55.658;37.498;2022-08-21T01:26:07;99741.13;;;15.92;91.74
72423;BME280;60413;55.658;37.498;2022-08-21T01:28:37;99749.94;;;15.98;92.67
72423;BME280;60413;55.658;37.498;2022-08-21T01:31:06;99693.88;;;15.57;92.37
72423;BME280;60413;55.658;37.498;2022-08-21T01:33:44;99776.31;;;16.10;93.60
72423;BME280;60413;55.658;37.498;2022-08-21T01:36:10;99722.47;;;15.77;93.15
72423;BME280;60413;55.658;37.498;2022-08-21T01:38:39;99690.09;;;15.48;93.63
72423;BME280;60413;55.658;37.498;2022-08-21T01:41:05;99706.59;;;15.55;94.46
72423;BME280;60413;55.658;37.498;2022-08-21T01:43:31;99717.00;;;15.62;94.40
72423;BME280;60413;55.658;37.498;2022-08-21T01:45:57;99738.41;;;15.77;94.33
72423;BME280;60413;55.658;37.498;2022-08-21T01:48:23;99777.31;;;15.99;94.54
72423;BME280;60413;55.658;37.498;2022-08-21T01:50:49;99727.13;;;15.65;94.56
72423;BME280;60413;55.658;37.498;2022-08-21T01:53:18;99742.91;;;15.77;94.99
72423;BME280;60413;55.658;37.498;2022-08-21T01:55:46;99769.56;;;15.92;95.10
72423;BME280;60413;55.658;37.498;2022-08-21T01:58:15;99745.44;;;15.61;94.95
72423;BME280;60413;55.658;37.498;2022-08-21T02:00:41;99794.56;;;15.91;95.08
72423;BME280;60413;55.658;37.498;2022-08-21T02:03:08;99773.81;;;15.88;94.31
72423;BME280;60413;55.658;37.498;2022-08-21T02:05:37;99767.59;;;15.72;94.30
72423;BME280;60413;55.658;37.498;2022-08-21T02:08:06;99799.09;;;15.90;94.86
72423;BME280;60413;55.658;37.498;2022-08-21T02:10:34;99710.19;;;15.33;95.10
72423;BME280;60413;55.658;37.498;2022-08-21T02:13:00;99720.09;;;15.48;94.97
72423;BME280;60413;55.658;37.498;2022-08-21T02:15:28;99679.34;;;15.27;95.31
72423;BME280;60413;55.658;37.498;2022-08-21T02:17:57;99737.44;;;15.56;95.00
72423;BME280;60413;55.658;37.498;2022-08-21T02:20:29;99730.09;;;15.31;95.27
72423;BME280;60413;55.658;37.498;2022-08-21T02:22:55;99705.09;;;15.27;95.22
72423;BME280;60413;55.658;37.498;2022-08-21T02:25:27;99749.97;;;15.61;95.35
72423;BME280;60413;55.658;37.498;2022-08-21T02:27:56;99779.31;;;15.76;95.87
72423;BME280;60413;55.658;37.498;2022-08-21T02:30:28;99742.69;;;15.46;95.30
72423;BME280;60413;55.658;37.498;2022-08-21T02:32:54;99764.84;;;15.62;95.99
72423;BME280;60413;55.658;37.498;2022-08-21T02:35:42;99706.72;;;15.33;95.70
72423;BME280;60413;55.658;37.498;2022-08-21T02:38:11;99738.91;;;15.42;96.00
72423;BME280;60413;55.658;37.498;2022-08-21T02:40:44;99725.34;;;15.38;96.12
72423;BME280;60413;55.658;37.498;2022-08-21T02:43:11;99775.34;;;15.79;96.24
72423;BME280;60413;55.658;37.498;2022-08-21T02:48:48;99692.34;;;15.24;96.36
72423;BME280;60413;55.658;37.498;2022-08-21T02:51:18;99751.53;;;15.62;96.06
72423;BME280;60413;55.658;37.498;2022-08-21T02:53:50;99689.72;;;15.29;96.33
72423;BME280;60413;55.658;37.498;2022-08-21T02:56:23;99736.69;;;15.61;95.74
72423;BME280;60413;55.658;37.498;2022-08-21T02:58:52;99754.59;;;15.76;95.44
72423;BME280;60413;55.658;37.498;2022-08-21T03:01:18;99783.94;;;15.91;95.21
72423;BME280;60413;55.658;37.498;2022-08-21T03:03:46;99772.63;;;15.73;95.08
72423;BME280;60413;55.658;37.498;2022-08-21T03:06:16;99801.22;;;15.99;94.92
72423;BME280;60413;55.658;37.498;2022-08-21T03:08:44;99735.09;;;15.65;93.90
72423;BME280;60413;55.658;37.498;2022-08-21T03:15:26;99706.59;;;15.55;93.47
72423;BME280;60413;55.658;37.498;2022-08-21T03:17:52;99799.75;;;16.18;92.16
72423;BME280;60413;55.658;37.498;2022-08-21T03:20:29;99749.13;;;15.98;92.70
72423;BME280;60413;55.658;37.498;2022-08-21T03:22:56;99753.06;;;15.90;91.91
72423;BME280;60413;55.658;37.498;2022-08-21T03:25:26;99813.09;;;16.28;92.19
72423;BME280;60413;55.658;37.498;2022-08-21T03:27:53;99762.19;;;15.99;90.98
72423;BME280;60413;55.658;37.498;2022-08-21T03:30:20;99767.06;;;16.18;89.98
72423;BME280;60413;55.658;37.498;2022-08-21T03:32:55;99731.31;;;15.93;90.68
72423;BME280;60413;55.658;37.498;2022-08-21T03:35:34;99720.38;;;15.84;90.10
72423;BME280;60413;55.658;37.498;2022-08-21T03:38:12;99733.16;;;15.92;89.13
72423;BME280;60413;55.658;37.498;2022-08-21T03:40:38;99720.41;;;15.95;88.58
72423;BME280;60413;55.658;37.498;2022-08-21T03:43:12;99782.31;;;16.38;86.81
72423;BME280;60413;55.658;37.498;2022-08-21T03:45:49;99747.66;;;16.17;86.84
72423;BME280;60413;55.658;37.498;2022-08-21T03:48:15;99729.81;;;16.13;86.72
72423;BME280;60413;55.658;37.498;2022-08-21T03:50:45;99719.16;;;16.07;85.51
72423;BME280;60413;55.658;37.498;2022-08-21T03:53:14;99735.19;;;16.33;84.50
72423;BME280;60413;55.658;37.498;2022-08-21T03:55:44;99734.19;;;16.49;81.58
72423;BME280;60413;55.658;37.498;2022-08-21T03:58:17;99760.09;;;16.95;79.31
72423;BME280;60413;55.658;37.498;2022-08-21T04:00:52;99758.81;;;17.13;76.31
72423;BME280;60413;55.658;37.498;2022-08-21T04:03:22;99745.75;;;17.17;74.41
72423;BME280;60413;55.658;37.498;2022-08-21T04:05:51;99748.94;;;17.39;73.49
72423;BME280;60413;55.658;37.498;2022-08-21T04:08:18;99759.56;;;17.65;72.71
72423;BME280;60413;55.658;37.498;2022-08-21T04:10:51;99749.16;;;17.74;71.40
72423;BME280;60413;55.658;37.498;2022-08-21T04:13:21;99726.53;;;17.66;69.73
72423;BME280;60413;55.658;37.498;2022-08-21T04:15:47;99794.72;;;18.08;67.08
72423;BME280;60413;55.658;37.498;2022-08-21T04:18:16;99742.69;;;18.11;67.46
72423;BME280;60413;55.658;37.498;2022-08-21T04:20:44;99739.53;;;17.99;68.16
72423;BME280;60413;55.658;37.498;2022-08-21T04:23:11;99759.22;;;18.13;68.12
72423;BME280;60413;55.658;37.498;2022-08-21T04:25:37;99781.03;;;18.30;65.85
72423;BME280;60413;55.658;37.498;2022-08-21T04:28:06;99776.53;;;18.21;67.21
72423;BME280;60413;55.658;37.498;2022-08-21T04:30:32;99726.22;;;17.78;67.90
72423;BME280;60413;55.658;37.498;2022-08-21T04:33:01;99705.97;;;17.72;67.92
72423;BME280;60413;55.658;37.498;2022-08-21T04:35:32;99736.09;;;17.83;68.07
72423;BME280;60413;55.658;37.498;2022-08-21T04:38:08;99741.16;;;17.94;66.53
72423;BME280;60413;55.658;37.498;2022-08-21T04:40:43;99797.25;;;18.49;65.67
72423;BME280;60413;55.658;37.498;2022-08-21T04:43:12;99728.22;;;18.22;64.08
72423;BME280;60413;55.658;37.498;2022-08-21T04:45:45;99735.53;;;18.56;61.82
72423;BME280;60413;55.658;37.498;2022-08-21T04:48:15;99750.00;;;18.95;59.70
72423;BME280;60413;55.658;37.498;2022-08-21T04:51:05;99745.19;;;19.31;57.28
72423;BME280;60413;55.658;37.498;2022-08-21T04:53:41;99771.75;;;20.05;54.54
72423;BME280;60413;55.658;37.498;2022-08-21T04:56:35;99731.47;;;19.67;53.78
72423;BME280;60413;55.658;37.498;2022-08-21T04:59:14;99733.31;;;19.72;54.14
72423;BME280;60413;55.658;37.498;2022-08-21T05:01:43;99765.94;;;19.69;53.30
72423;BME280;60413;55.658;37.498;2022-08-21T05:04:14;99819.19;;;20.24;52.88
72423;BME280;60413;55.658;37.498;2022-08-21T05:06:51;99718.94;;;19.92;52.05
72423;BME280;60413;55.658;37.498;2022-08-21T05:09:19;99759.84;;;20.16;51.97
72423;BME280;60413;55.658;37.498;2022-08-21T05:11:47;99719.94;;;20.20;50.46
72423;BME280;60413;55.658;37.498;2022-08-21T05:14:14;99740.28;;;20.59;49.97
72423;BME280;60413;55.658;37.498;2022-08-21T05:16:41;99745.94;;;20.58;49.13
72423;BME280;60413;55.658;37.498;2022-08-21T05:19:17;99761.75;;;21.30;47.76
72423;BME280;60413;55.658;37.498;2022-08-21T05:21:45;99806.22;;;21.50;47.18
72423;BME280;60413;55.658;37.498;2022-08-21T05:24:17;99739.38;;;21.21;46.77
72423;BME280;60413;55.658;37.498;2022-08-21T05:26:44;99763.97;;;21.09;47.01
72423;BME280;60413;55.658;37.498;2022-08-21T05:29:16;99744.09;;;21.43;45.90
72423;BME280;60413;55.658;37.498;2022-08-21T05:31:45;99763.03;;;21.65;45.21
72423;BME280;60413;55.658;37.498;2022-08-21T05:34:21;99776.88;;;22.00;44.34
72423;BME280;60413;55.658;37.498;2022-08-21T05:36:50;99744.56;;;21.92;43.83
72423;BME280;60413;55.658;37.498;2022-08-21T05:39:16;99725.09;;;21.86;42.72
72423;BME280;60413;55.658;37.498;2022-08-21T05:41:42;99772.19;;;22.20;42.99
72423;BME280;60413;55.658;37.498;2022-08-21T05:44:08;99778.69;;;22.33;42.96
72423;BME280;60413;55.658;37.498;2022-08-21T05:46:37;99741.69;;;22.16;42.15
72423;BME280;60413;55.658;37.498;2022-08-21T05:49:20;99758.69;;;22.98;41.44
72423;BME280;60413;55.658;37.498;2022-08-21T05:55:28;99789.13;;;23.53;40.85
72423;BME280;60413;55.658;37.498;2022-08-21T05:57:54;99770.03;;;23.94;39.97
72423;BME280;60413;55.658;37.498;2022-08-21T06:03:38;99805.09;;;24.12;39.30
72423;BME280;60413;55.658;37.498;2022-08-21T06:06:16;99731.34;;;23.50;39.15
72423;BME280;60413;55.658;37.498;2022-08-21T06:08:45;99752.53;;;23.74;38.81
72423;BME280;60413;55.658;37.498;2022-08-21T06:11:16;99731.44;;;23.36;38.77
72423;BME280;60413;55.658;37.498;2022-08-21T06:13:49;99718.59;;;23.96;38.86
72423;BME280;60413;55.658;37.498;2022-08-21T06:16:27;99733.06;;;24.26;38.42
72423;BME280;60413;55.658;37.498;2022-08-21T06:19:20;99739.13;;;24.67;37.02
72423;BME280;60413;55.658;37.498;2022-08-21T06:21:56;99743.38;;;25.11;36.41
72423;BME280;60413;55.658;37.498;2022-08-21T06:24:22;99725.66;;;24.75;35.65
72423;BME280;60413;55.658;37.498;2022-08-21T06:26:48;99750.88;;;24.80;35.96
72423;BME280;60413;55.658;37.498;2022-08-21T06:29:14;99724.38;;;24.90;36.00
72423;BME280;60413;55.658;37.498;2022-08-21T06:31:56;99746.41;;;25.75;35.01
72423;BME280;60413;55.658;37.498;2022-08-21T06:34:24;99757.16;;;26.43;34.50
72423;BME280;60413;55.658;37.498;2022-08-21T06:37:05;99713.03;;;26.09;34.26
72423;BME280;60413;55.658;37.498;2022-08-21T06:39:46;99714.47;;;25.38;34.29
72423;BME280;60413;55.658;37.498;2022-08-21T06:42:16;99759.56;;;25.11;35.10
72423;BME280;60413;55.658;37.498;2022-08-21T06:45:04;99780.03;;;25.21;35.11
72423;BME280;60413;55.658;37.498;2022-08-21T06:47:37;99780.00;;;25.39;35.26
72423;BME280;60413;55.658;37.498;2022-08-21T06:50:11;99743.06;;;25.69;34.96
72423;BME280;60413;55.658;37.498;2022-08-21T06:52:46;99737.09;;;25.55;34.55
72423;BME280;60413;55.658;37.498;2022-08-21T06:55:42;99736.09;;;24.86;35.84
72423;BME280;60413;55.658;37.498;2022-08-21T06:58:15;99699.81;;;24.83;35.30
72423;BME280;60413;55.658;37.498;2022-08-21T07:00:50;99718.00;;;25.04;35.24
72423;BME280;60413;55.658;37.498;2022-08-21T07:03:26;99781.91;;;25.21;34.74
72423;BME280;60413;55.658;37.498;2022-08-21T07:05:55;99772.91;;;25.08;35.17
72423;BME280;60413;55.658;37.498;2022-08-21T07:08:28;99742.09;;;25.74;34.65
72423;BME280;60413;55.658;37.498;2022-08-21T07:10:56;99764.09;;;26.95;33.88
72423;BME280;60413;55.658;37.498;2022-08-21T07:13:26;99688.47;;;25.93;33.21
72423;BME280;60413;55.658;37.498;2022-08-21T07:15:52;99768.63;;;26.61;33.25
72423;BME280;60413;55.658;37.498;2022-08-21T07:18:18;99704.56;;;25.81;33.44
72423;BME280;60413;55.658;37.498;2022-08-21T07:20:47;99701.03;;;25.59;33.46
72423;BME280;60413;55.658;37.498;2022-08-21T07:23:24;99762.13;;;25.64;33.76
72423;BME280;60413;55.658;37.498;2022-08-21T07:25:52;99705.66;;;24.94;33.92
72423;BME280;60413;55.658;37.498;2022-08-21T07:28:18;99708.06;;;24.60;34.38
72423;BME280;60413;55.658;37.498;2022-08-21T07:30:44;99766.44;;;25.65;34.22
72423;BME280;60413;55.658;37.498;2022-08-21T07:33:11;99708.47;;;25.15;33.81
72423;BME280;60413;55.658;37.498;2022-08-21T07:35:40;99731.53;;;24.77;34.73
72423;BME280;60413;55.658;37.498;2022-08-21T07:38:06;99700.44;;;24.28;35.22
72423;BME280;60413;55.658;37.498;2022-08-21T07:40:32;99724.34;;;24.47;35.19
72423;BME280;60413;55.658;37.498;2022-08-21T07:42:59;99743.72;;;24.92;34.68
72423;BME280;60413;55.658;37.498;2022-08-21T07:45:27;99700.13;;;24.29;35.20
72423;BME280;60413;55.658;37.498;2022-08-21T07:47:53;99731.34;;;24.74;35.47
72423;BME280;60413;55.658;37.498;2022-08-21T07:50:22;99704.97;;;25.14;34.37
72423;BME280;60413;55.658;37.498;2022-08-21T07:52:53;99728.03;;;24.94;34.10
72423;BME280;60413;55.658;37.498;2022-08-21T07:55:20;99683.66;;;24.57;33.84
72423;BME280;60413;55.658;37.498;2022-08-21T07:57:47;99714.19;;;25.05;33.93
72423;BME280;60413;55.658;37.498;2022-08-21T08:00:23;99703.34;;;25.40;33.94
72423;BME280;60413;55.658;37.498;2022-08-21T08:02:51;99708.03;;;24.95;33.68
72423;BME280;60413;55.658;37.498;2022-08-21T08:05:24;99727.66;;;25.13;33.51
72423;BME280;60413;55.658;37.498;2022-08-21T08:07:52;99691.53;;;24.97;33.88
72423;BME280;60413;55.658;37.498;2022-08-21T08:10:26;99706.41;;;25.12;34.33
72423;BME280;60413;55.658;37.498;2022-08-21T08:12:53;99692.81;;;24.91;34.58
72423;BME280;60413;55.658;37.498;2022-08-21T08:15:23;99712.66;;;24.60;34.57
72423;BME280;60413;55.658;37.498;2022-08-21T08:17:55;99674.16;;;23.76;34.58
72423;BME280;60413;55.658;37.498;2022-08-21T08:20:25;99663.94;;;23.46;35.30
72423;BME280;60413;55.658;37.498;2022-08-21T08:22:53;99706.59;;;23.71;35.61
72423;BME280;60413;55.658;37.498;2022-08-21T08:25:25;99702.97;;;24.24;35.27
72423;BME280;60413;55.658;37.498;2022-08-21T08:27:51;99662.22;;;24.26;35.11
72423;BME280;60413;55.658;37.498;2022-08-21T08:30:23;99708.19;;;24.29;35.69
72423;BME280;60413;55.658;37.498;2022-08-21T08:32:50;99660.94;;;23.97;35.08
72423;BME280;60413;55.658;37.498;2022-08-21T08:35:16;99700.22;;;24.15;34.34
72423;BME280;60413;55.658;37.498;2022-08-21T08:37:42;99663.66;;;24.23;33.76
72423;BME280;60413;55.658;37.498;2022-08-21T08:40:18;99652.88;;;24.32;33.39
72423;BME280;60413;55.658;37.498;2022-08-21T08:42:46;99648.13;;;24.81;33.78
72423;BME280;60413;55.658;37.498;2022-08-21T08:45:17;99672.78;;;25.57;32.85
72423;BME280;60413;55.658;37.498;2022-08-21T08:47:55;99700.59;;;25.48;33.40
72423;BME280;60413;55.658;37.498;2022-08-21T08:53:32;99660.94;;;24.40;33.96
72423;BME280;60413;55.658;37.498;2022-08-21T08:56:03;99680.13;;;24.30;35.23
72423;BME280;60413;55.658;37.498;2022-08-21T08:58:44;99675.38;;;24.18;35.30
72423;BME280;60413;55.658;37.498;2022-08-21T09:01:17;99658.84;;;23.94;35.08
72423;BME280;60413;55.658;37.498;2022-08-21T09:03:45;99700.38;;;24.10;35.18
72423;BME280;60413;55.658;37.498;2022-08-21T09:06:37;99662.53;;;24.07;35.09
72423;BME280;60413;55.658;37.498;2022-08-21T09:12:02;99721.06;;;24.67;34.30
72423;BME280;60413;55.658;37.498;2022-08-21T09:17:32;99726.63;;;24.80;33.46
72423;BME280;60413;55.658;37.498;2022-08-21T09:23:31;99715.00;;;24.79;33.10
72423;BME280;60413;55.658;37.498;2022-08-21T09:26:12;99703.44;;;24.96;33.18
72423;BME280;60413;55.658;37.498;2022-08-21T09:28:41;99653.84;;;24.71;32.45
72423;BME280;60413;55.658;37.498;2022-08-21T09:31:32;99694.38;;;25.01;32.63
72423;BME280;60413;55.658;37.498;2022-08-21T09:34:11;99655.06;;;25.00;32.67
72423;BME280;60413;55.658;37.498;2022-08-21T09:36:44;99648.84;;;24.99;32.71
72423;BME280;60413;55.658;37.498;2022-08-21T09:39:23;99705.03;;;24.88;32.90
72423;BME280;60413;55.658;37.498;2022-08-21T09:42:03;99644.78;;;24.40;32.60
72423;BME280;60413;55.658;37.498;2022-08-21T09:44:32;99662.06;;;24.48;33.16
72423;BME280;60413;55.658;37.498;2022-08-21T09:47:01;99641.81;;;24.16;32.94
72423;BME280;60413;55.658;37.498;2022-08-21T09:49:36;99645.75;;;24.18;33.04
72423;BME280;60413;55.658;37.498;2022-08-21T09:52:14;99639.88;;;24.25;32.98
72423;BME280;60413;55.658;37.498;2022-08-21T09:54:45;99658.28;;;24.23;33.43
72423;BME280;60413;55.658;37.498;2022-08-21T09:57:24;99676.00;;;24.50;33.22
72423;BME280;60413;55.658;37.498;2022-08-21T10:00:25;99700.75;;;24.87;33.52
72423;BME280;60413;55.658;37.498;2022-08-21T10:03:17;99651.47;;;24.43;33.42
72423;BME280;60413;55.658;37.498;2022-08-21T10:06:02;99705.81;;;24.80;33.61
72423;BME280;60413;55.658;37.498;2022-08-21T10:08:33;99674.91;;;24.51;33.76
72423;BME280;60413;55.658;37.498;2022-08-21T10:11:07;99696.16;;;24.53;34.03
72423;BME280;60413;55.658;37.498;2022-08-21T10:13:54;99717.13;;;24.56;33.64
72423;BME280;60413;55.658;37.498;2022-08-21T10:19:52;99674.09;;;24.42;33.23
72423;BME280;60413;55.658;37.498;2022-08-21T10:25:40;99664.78;;;24.31;32.74
72423;BME280;60413;55.658;37.498;2022-08-21T10:28:27;99625.66;;;24.16;33.08
72423;BME280;60413;55.658;37.498;2022-08-21T10:36:23;99625.63;;;24.07;32.55
72423;BME280;60413;55.658;37.498;2022-08-21T10:39:35;99694.88;;;24.41;33.11
72423;BME280;60413;55.658;37.498;2022-08-21T10:42:46;99685.84;;;24.46;33.02
72423;BME280;60413;55.658;37.498;2022-08-21T10:45:26;99693.16;;;24.63;33.67
72423;BME280;60413;55.658;37.498;2022-08-21T10:48:06;99604.38;;;23.88;33.08
72423;BME280;60413;55.658;37.498;2022-08-21T10:51:39;99600.91;;;23.88;32.51
72423;BME280;60413;55.658;37.498;2022-08-21T10:57:12;99605.13;;;23.71;32.60
72423;BME280;60413;55.658;37.498;2022-08-21T10:59:50;99670.78;;;24.28;33.17
72423;BME280;60413;55.658;37.498;2022-08-21T11:02:38;99620.19;;;23.81;32.63
72423;BME280;60413;55.658;37.498;2022-08-21T11:05:31;99625.13;;;23.88;33.02
72423;BME280;60413;55.658;37.498;2022-08-21T11:08:15;99679.50;;;24.25;32.72
72423;BME280;60413;55.658;37.498;2022-08-21T11:10:53;99599.44;;;23.73;32.72
72423;BME280;60413;55.658;37.498;2022-08-21T11:19:17;99640.19;;;24.32;32.46
72423;BME280;60413;55.658;37.498;2022-08-21T11:24:32;99683.19;;;24.55;32.68
72423;BME280;60413;55.658;37.498;2022-08-21T11:27:21;99659.88;;;24.33;32.42
72423;BME280;60413;55.658;37.498;2022-08-21T11:29:57;99644.31;;;24.38;33.09
72423;BME280;60413;55.658;37.498;2022-08-21T11:45:55;99621.81;;;24.17;33.57
72423;BME280;60413;55.658;37.498;2022-08-21T11:48:40;99649.56;;;24.35;33.48
72423;BME280;60413;55.658;37.498;2022-08-21T11:51:17;99590.63;;;23.90;33.23
72423;BME280;60413;55.658;37.498;2022-08-21T11:53:48;99637.97;;;24.08;33.33
72423;BME280;60413;55.658;37.498;2022-08-21T11:56:32;99587.69;;;23.60;33.47
72423;BME280;60413;55.658;37.498;2022-08-21T11:59:26;99590.56;;;23.72;33.56
72423;BME280;60413;55.658;37.498;2022-08-21T12:01:58;99619.59;;;23.93;33.18
72423;BME280;60413;55.658;37.498;2022-08-21T12:04:34;99617.69;;;23.84;33.34
72423;BME280;60413;55.658;37.498;2022-08-21T12:07:28;99595.47;;;23.79;33.77
72423;BME280;60413;55.658;37.498;2022-08-21T12:09:58;99590.25;;;23.74;33.42
72423;BME280;60413;55.658;37.498;2022-08-21T12:12:36;99607.53;;;23.81;33.20
72423;BME280;60413;55.658;37.498;2022-08-21T12:15:23;99638.44;;;24.10;33.30
72423;BME280;60413;55.658;37.498;2022-08-21T12:18:02;99631.31;;;24.05;32.69
72423;BME280;60413;55.658;37.498;2022-08-21T12:20:44;99637.50;;;24.15;32.88
72423;BME280;60413;55.658;37.498;2022-08-21T12:24:00;99628.31;;;23.98;32.83
72423;BME280;60413;55.658;37.498;2022-08-21T12:26:47;99575.38;;;23.76;32.13
72423;BME280;60413;55.658;37.498;2022-08-21T12:29:22;99613.59;;;23.96;32.04
72423;BME280;60413;55.658;37.498;2022-08-21T12:34:29;99639.88;;;24.16;31.89
72423;BME280;60413;55.658;37.498;2022-08-21T12:37:05;99623.72;;;24.16;32.09
72423;BME280;60413;55.658;37.498;2022-08-21T12:39:36;99568.78;;;23.91;32.00
72423;BME280;60413;55.658;37.498;2022-08-21T12:42:41;99618.50;;;24.29;31.76
72423;BME280;60413;55.658;37.498;2022-08-21T12:45:32;99635.28;;;24.26;32.24
72423;BME280;60413;55.658;37.498;2022-08-21T12:48:10;99600.13;;;24.04;31.86
72423;BME280;60413;55.658;37.498;2022-08-21T12:50:57;99614.22;;;24.10;31.63
72423;BME280;60413;55.658;37.498;2022-08-21T12:53:53;99638.63;;;24.22;31.68
72423;BME280;60413;55.658;37.498;2022-08-21T12:56:25;99637.03;;;24.21;31.59
72423;BME280;60413;55.658;37.498;2022-08-21T12:59:06;99593.16;;;23.86;31.60
72423;BME280;60413;55.658;37.498;2022-08-21T13:01:49;99549.13;;;23.82;31.69
72423;BME280;60413;55.658;37.498;2022-08-21T13:04:33;99573.84;;;23.93;32.05
72423;BME280;60413;55.658;37.498;2022-08-21T13:07:11;99573.63;;;23.80;32.00
72423;BME280;60413;55.658;37.498;2022-08-21T13:09:46;99599.81;;;24.23;32.03
72423;BME280;60413;55.658;37.498;2022-08-21T13:12:22;99569.25;;;23.84;31.71
72423;BME280;60413;55.658;37.498;2022-08-21T13:15:02;99581.13;;;24.10;31.71
72423;BME280;60413;55.658;37.498;2022-08-21T13:17:39;99581.13;;;24.10;31.96
72423;BME280;60413;55.658;37.498;2022-08-21T13:20:22;99582.84;;;24.05;31.94
72423;BME280;60413;55.658;37.498;2022-08-21T13:23:29;99585.09;;;24.21;32.03
72423;BME280;60413;55.658;37.498;2022-08-21T13:26:16;99569.56;;;24.00;32.17
72423;BME280;60413;55.658;37.498;2022-08-21T13:28:47;99604.72;;;24.21;31.72
72423;BME280;60413;55.658;37.498;2022-08-21T13:31:26;99576.22;;;24.03;31.75
72423;BME280;60413;55.658;37.498;2022-08-21T13:33:58;99567.03;;;24.13;31.88
72423;BME280;60413;55.658;37.498;2022-08-21T13:36:39;99597.88;;;24.50;32.18
72423;BME280;60413;55.658;37.498;2022-08-21T13:39:26;99538.03;;;24.10;32.24
72423;BME280;60413;55.658;37.498;2022-08-21T13:42:04;99594.75;;;24.31;32.17
72423;BME280;60413;55.658;37.498;2022-08-21T13:44:47;99574.16;;;24.26;32.47
72423;BME280;60413;55.658;37.498;2022-08-21T13:47:24;99570.81;;;24.29;32.22
72423;BME280;60413;55.658;37.498;2022-08-21T13:49:58;99551.19;;;24.11;31.85
72423;BME280;60413;55.658;37.498;2022-08-21T13:52:26;99538.19;;;24.13;32.23
72423;BME280;60413;55.658;37.498;2022-08-21T13:55:13;99592.34;;;24.38;32.01
72423;BME280;60413;55.658;37.498;2022-08-21T13:57:43;99571.91;;;24.28;32.03
72423;BME280;60413;55.658;37.498;2022-08-21T14:00:26;99526.50;;;24.09;32.34
72423;BME280;60413;55.658;37.498;2022-08-21T14:03:26;99528.06;;;24.01;31.99
72423;BME280;60413;55.658;37.498;2022-08-21T14:05:53;99557.50;;;24.15;31.97
72423;BME280;60413;55.658;37.498;2022-08-21T14:09:03;99582.38;;;24.30;32.47
72423;BME280;60413;55.658;37.498;2022-08-21T14:11:38;99509.69;;;23.95;32.49
72423;BME280;60413;55.658;37.498;2022-08-21T14:14:33;99561.16;;;24.19;32.67
72423;BME280;60413;55.658;37.498;2022-08-21T14:17:05;99553.72;;;24.16;32.68
72423;BME280;60413;55.658;37.498;2022-08-21T14:22:43;99537.41;;;23.86;32.64
72423;BME280;60413;55.658;37.498;2022-08-21T14:27:51;99609.31;;;24.30;32.94
72423;BME280;60413;55.658;37.498;2022-08-21T14:30:33;99624.97;;;24.19;33.24
72423;BME280;60413;55.658;37.498;2022-08-21T14:33:04;99580.63;;;23.90;33.33
72423;BME280;60413;55.658;37.498;2022-08-21T14:35:42;99539.25;;;23.60;33.53
72423;BME280;60413;55.658;37.498;2022-08-21T14:38:21;99541.16;;;23.68;33.18